Time;durP1;ratioP1;P1;durP2;ratioP2;P2;SDS_P1;SDS_P2;PMS_P1;PMS_P2;Temp;Humidity;BMP_temperature;BMP_pressure;BME280_temperature;BME280_humidity;BME280_pressure;Samples;Min_cycle;Max_cycle;Signal;HPM_P1;HPM_P2
2023/06/01 00:01:51;;;;;;;3.33;1.83;;;;;;;19.01;43.09;97436.13;4909803;28;20188;-81
2023/06/01 00:04:17;;;;;;;4.97;2.00;;;;;;;18.93;43.39;97429.66;4860828;29;20031;-82
2023/06/01 00:06:43;;;;;;;4.30;1.60;;;;;;;18.94;43.23;97436.50;4896983;29;20199;-82
2023/06/01 00:09:08;;;;;;;3.65;1.85;;;;;;;18.84;43.29;97429.53;4900680;29;20524;-80
2023/06/01 00:11:34;;;;;;;1.58;1.42;;;;;;;18.76;43.97;97427.53;4855683;29;20400;-80
2023/06/01 00:13:59;;;;;;;4.18;1.73;;;;;;;18.70;43.75;97424.22;4878658;28;20568;-80
2023/06/01 00:16:25;;;;;;;3.38;1.50;;;;;;;18.75;43.22;97430.47;4857265;29;20164;-79
2023/06/01 00:18:52;;;;;;;3.20;1.52;;;;;;;18.68;43.58;97425.59;4873272;28;20312;-80
2023/06/01 00:21:18;;;;;;;2.80;1.65;;;;;;;18.70;44.20;97421.59;4841020;29;20219;-80
2023/06/01 00:23:45;;;;;;;2.97;1.70;;;;;;;18.69;44.17;97427.16;4868891;28;20211;-81
2023/06/01 00:26:11;;;;;;;3.92;2.03;;;;;;;18.68;43.63;97425.59;4852295;29;20231;-80
2023/06/01 00:28:37;;;;;;;2.67;1.70;;;;;;;18.64;44.38;97421.97;4868629;28;20192;-80
2023/06/01 00:31:02;;;;;;;2.55;1.52;;;;;;;18.46;44.17;97405.91;4854061;29;20299;-80
2023/06/01 00:33:27;;;;;;;3.10;1.65;;;;;;;18.49;44.55;97423.78;4854501;29;20401;-80
2023/06/01 00:35:53;;;;;;;3.55;1.70;;;;;;;18.37;44.67;97414.75;4854085;29;20195;-80
2023/06/01 00:38:19;;;;;;;3.65;1.90;;;;;;;18.26;44.43;97414.94;4868723;28;20197;-80
2023/06/01 00:40:44;;;;;;;2.70;1.88;;;;;;;18.28;44.77;97412.81;4869003;28;20264;-80
2023/06/01 00:43:10;;;;;;;1.95;1.60;;;;;;;18.30;44.63;97408.03;4847692;29;20631;-80
2023/06/01 00:45:37;;;;;;;4.97;1.58;;;;;;;18.22;44.54;97405.25;4839515;29;20208;-80
2023/06/01 00:48:03;;;;;;;3.85;1.70;;;;;;;18.28;44.85;97407.53;4850529;29;20706;-79
2023/06/01 00:50:30;;;;;;;2.75;1.70;;;;;;;18.26;45.17;97416.78;4853742;29;20274;-79
2023/06/01 00:52:57;;;;;;;3.03;1.70;;;;;;;18.15;45.17;97413.53;4868979;29;20233;-80
2023/06/01 00:55:23;;;;;;;3.05;1.83;;;;;;;18.07;45.09;97412.31;4854279;29;20219;-79
2023/06/01 00:57:52;;;;;;;2.63;1.73;;;;;;;18.03;45.15;97411.34;4854163;29;20720;-80
2023/06/01 01:00:17;;;;;;;2.83;1.80;;;;;;;17.90;45.55;97406.78;4865102;28;20653;-80
2023/06/01 01:02:48;;;;;;;2.72;1.83;;;;;;;17.93;45.41;97414.91;4893070;23;20209;-77
2023/06/01 01:05:15;;;;;;;2.33;1.75;;;;;;;17.84;46.18;97403.44;4896049;28;20206;-77
2023/06/01 01:07:47;;;;;;;4.50;1.98;;;;;;;17.86;46.09;97411.03;4911792;28;20268;-77
2023/06/01 01:10:32;;;;;;;4.47;2.03;;;;;;;17.98;45.60;97414.06;4899801;28;20685;-76
2023/06/01 01:13:04;;;;;;;2.33;1.80;;;;;;;17.89;45.69;97406.00;4903112;28;20213;-78
2023/06/01 01:15:35;;;;;;;4.35;1.77;;;;;;;17.89;46.13;97399.94;4900296;28;20257;-76
2023/06/01 01:18:07;;;;;;;2.10;1.83;;;;;;;17.87;45.98;97404.72;4910804;28;20200;-76
2023/06/01 01:20:38;;;;;;;3.33;1.85;;;;;;;17.86;45.91;97406.56;4893901;28;20330;-77
2023/06/01 01:23:24;;;;;;;3.55;1.98;;;;;;;17.83;46.31;97411.59;4903747;28;20295;-77
2023/06/01 01:25:58;;;;;;;3.42;2.60;;;;;;;17.61;46.68;97415.56;4912102;28;20244;-76
2023/06/01 01:28:49;;;;;;;3.60;2.40;;;;;;;17.61;46.76;97415.56;4902431;28;20280;-76
2023/06/01 01:31:17;;;;;;;3.88;2.15;;;;;;;17.48;47.07;97411.81;4926546;28;20189;-77
2023/06/01 01:33:44;;;;;;;3.70;1.80;;;;;;;17.32;46.93;97408.56;4888564;28;20114;-77
2023/06/01 01:36:10;;;;;;;2.47;2.03;;;;;;;17.21;47.43;97409.78;4892597;28;20099;-77
2023/06/01 01:38:36;;;;;;;2.30;1.85;;;;;;;17.13;47.89;97416.41;4891266;28;20235;-76
2023/06/01 01:41:02;;;;;;;4.43;1.90;;;;;;;17.07;47.55;97411.50;4889784;28;20305;-77
2023/06/01 01:43:28;;;;;;;4.05;1.88;;;;;;;16.95;48.14;97404.03;4892911;28;20242;-76
2023/06/01 01:46:28;;;;;;;2.95;1.80;;;;;;;17.05;47.79;97409.16;4894400;28;20170;-76
2023/06/01 01:49:12;;;;;;;1.75;1.65;;;;;;;17.01;48.04;97416.03;4899805;28;20272;-77
2023/06/01 01:51:52;;;;;;;5.35;2.40;;;;;;;16.92;48.05;97404.56;4906029;28;20614;-77
2023/06/01 01:54:18;;;;;;;3.55;2.55;;;;;;;16.84;48.58;97419.91;4910561;28;20503;-77
2023/06/01 01:56:44;;;;;;;3.90;2.08;;;;;;;16.78;48.82;97405.19;4892778;28;20202;-76
2023/06/01 01:59:10;;;;;;;2.67;1.67;;;;;;;16.78;48.50;97402.56;4880251;28;20193;-77
2023/06/01 02:01:37;;;;;;;2.53;1.80;;;;;;;16.82;48.84;97403.56;4906355;28;20182;-77
2023/06/01 02:04:04;;;;;;;2.30;1.90;;;;;;;16.82;48.85;97400.16;4903950;28;20292;-77
2023/06/01 02:06:30;;;;;;;4.15;2.63;;;;;;;16.86;48.38;97403.81;4867347;28;20184;-77
2023/06/01 02:08:56;;;;;;;3.13;1.90;;;;;;;16.84;49.22;97409.38;4889690;28;20328;-78
2023/06/01 02:11:21;;;;;;;3.47;1.98;;;;;;;16.82;48.52;97405.41;4898975;28;20351;-76
2023/06/01 02:13:47;;;;;;;3.25;1.90;;;;;;;16.88;48.23;97404.34;4899086;28;20660;-77
2023/06/01 02:16:13;;;;;;;5.82;2.03;;;;;;;16.88;48.61;97400.91;4900319;28;20199;-76
2023/06/01 02:18:39;;;;;;;2.05;1.58;;;;;;;16.86;48.50;97398.56;4871265;28;20227;-77
2023/06/01 02:21:08;;;;;;;4.43;2.03;;;;;;;17.00;48.28;97414.47;4908261;28;20256;-77
2023/06/01 02:23:35;;;;;;;3.63;1.75;;;;;;;16.98;47.94;97398.97;4907057;28;20195;-77
2023/06/01 02:26:00;;;;;;;5.35;2.53;;;;;;;17.05;47.55;97398.66;4907227;28;20214;-77
2023/06/01 02:28:25;;;;;;;4.57;1.90;;;;;;;17.10;47.61;97393.31;4910292;28;20713;-76
2023/06/01 02:30:51;;;;;;;4.00;1.85;;;;;;;17.16;46.97;97394.81;4922835;28;20209;-78
2023/06/01 02:33:17;;;;;;;2.63;1.80;;;;;;;17.22;47.24;97392.91;4867096;28;20222;-77
2023/06/01 02:35:42;;;;;;;2.75;1.70;;;;;;;17.26;46.92;97395.78;4898145;28;20259;-77
2023/06/01 02:38:07;;;;;;;2.97;1.60;;;;;;;17.25;46.88;97397.59;4894283;28;20250;-77
2023/06/01 02:40:33;;;;;;;7.97;1.95;;;;;;;17.32;46.90;97402.53;4882719;28;20214;-78
2023/06/01 02:42:58;;;;;;;3.58;1.73;;;;;;;17.31;47.39;97399.13;4890959;28;20274;-77
2023/06/01 02:45:24;;;;;;;5.70;2.00;;;;;;;17.31;47.90;97395.72;4877699;28;20215;-77
2023/06/01 02:47:49;;;;;;;2.65;1.85;;;;;;;17.32;46.92;97392.78;4889445;28;20700;-77
2023/06/01 02:50:15;;;;;;;2.53;1.90;;;;;;;17.32;46.98;97392.00;4890302;28;20600;-76
2023/06/01 02:52:42;;;;;;;3.08;1.70;;;;;;;17.28;47.48;97394.41;4907019;28;20293;-76
2023/06/01 02:55:07;;;;;;;3.15;1.70;;;;;;;17.26;46.51;97388.66;4878384;28;20119;-77
2023/06/01 02:57:33;;;;;;;3.15;2.00;;;;;;;17.30;47.04;97391.50;4868982;28;20159;-77
2023/06/01 02:59:58;;;;;;;3.03;1.80;;;;;;;17.27;47.01;97392.06;4897310;28;20277;-77
2023/06/01 03:02:26;;;;;;;3.78;2.05;;;;;;;17.14;47.51;97385.66;4895085;28;20492;-76
2023/06/01 03:04:52;;;;;;;2.95;2.00;;;;;;;17.07;48.13;97386.00;4872639;28;20332;-77
2023/06/01 03:07:18;;;;;;;2.53;1.95;;;;;;;17.08;47.43;97376.25;4889942;28;20282;-77
2023/06/01 03:09:43;;;;;;;4.13;1.80;;;;;;;17.12;48.16;97391.19;4922430;28;20484;-77
2023/06/01 03:12:10;;;;;;;3.28;1.88;;;;;;;17.12;47.60;97385.13;4882729;28;20218;-77
2023/06/01 03:14:35;;;;;;;3.67;1.70;;;;;;;17.20;47.20;97392.41;4912828;28;20226;-76
2023/06/01 03:17:01;;;;;;;4.75;2.42;;;;;;;17.19;47.30;97389.00;4911549;28;20696;-77
2023/06/01 03:19:26;;;;;;;3.35;2.05;;;;;;;17.18;47.48;97391.91;4894067;28;20034;-77
2023/06/01 03:21:52;;;;;;;4.05;1.85;;;;;;;17.18;47.70;97395.31;4877937;28;20196;-77
2023/06/01 03:24:17;;;;;;;2.28;2.00;;;;;;;17.18;47.46;97386.66;4911570;28;20202;-77
2023/06/01 03:26:42;;;;;;;3.75;2.20;;;;;;;17.20;47.20;97395.84;4899875;28;20246;-77
2023/06/01 03:29:08;;;;;;;2.38;1.80;;;;;;;17.23;47.60;97391.84;4898144;28;20207;-76
2023/06/01 03:31:37;;;;;;;2.70;1.83;;;;;;;17.22;47.17;97404.22;4901358;28;20236;-76
2023/06/01 03:34:02;;;;;;;2.50;2.10;;;;;;;17.17;47.35;97396.41;4889324;28;20528;-76
2023/06/01 03:36:28;;;;;;;2.78;1.80;;;;;;;17.19;46.73;97404.00;4911383;28;20286;-76
2023/06/01 03:38:53;;;;;;;3.05;2.50;;;;;;;17.22;47.50;97400.78;4893604;28;20267;-77
2023/06/01 03:41:19;;;;;;;4.32;1.88;;;;;;;17.18;47.28;97394.53;4894421;28;20332;-76
2023/06/01 03:43:45;;;;;;;4.50;1.98;;;;;;;17.16;47.56;97399.31;4904943;28;20571;-77
2023/06/01 03:46:13;;;;;;;3.50;1.70;;;;;;;17.23;47.68;97403.16;4884935;28;20115;-76
2023/06/01 03:48:39;;;;;;;2.55;1.80;;;;;;;17.14;47.66;97404.06;4879811;28;20657;-77
2023/06/01 03:51:05;;;;;;;3.80;2.28;;;;;;;17.16;47.73;97405.34;4882157;28;20199;-77
2023/06/01 03:53:31;;;;;;;4.20;2.45;;;;;;;17.12;47.47;97404.34;4895447;28;20300;-77
2023/06/01 03:55:56;;;;;;;3.53;1.83;;;;;;;17.04;47.39;97397.84;4895968;28;20206;-77
2023/06/01 03:58:23;;;;;;;2.50;1.92;;;;;;;17.01;47.80;97403.66;4901299;28;20214;-77
2023/06/01 04:00:49;;;;;;;4.35;2.08;;;;;;;16.98;48.24;97408.69;4909902;28;20253;-76
2023/06/01 04:03:15;;;;;;;2.70;2.00;;;;;;;16.95;48.49;97406.66;4902033;28;20280;-77
2023/06/01 04:05:48;;;;;;;2.92;2.00;;;;;;;16.90;48.57;97415.38;4878550;28;20195;-77
2023/06/01 04:08:13;;;;;;;3.17;2.00;;;;;;;16.91;48.41;97409.03;4892291;28;20673;-77
2023/06/01 04:10:40;;;;;;;3.42;2.00;;;;;;;16.94;48.72;97413.72;4905648;28;20209;-77
2023/06/01 04:13:05;;;;;;;2.65;2.10;;;;;;;16.91;48.91;97410.88;4926587;28;20209;-77
2023/06/01 04:15:32;;;;;;;3.67;2.22;;;;;;;17.01;48.22;97419.44;4911222;28;20189;-77
2023/06/01 04:17:57;;;;;;;3.15;1.92;;;;;;;17.06;48.84;97417.84;4883360;28;20202;-76
2023/06/01 04:20:23;;;;;;;2.10;1.90;;;;;;;17.07;48.95;97416.75;4877239;28;20180;-76
2023/06/01 04:22:48;;;;;;;3.78;2.05;;;;;;;17.15;48.59;97419.56;4908625;28;20205;-76
2023/06/01 04:25:18;;;;;;;2.97;1.85;;;;;;;17.16;48.84;97420.34;4897426;28;20206;-76
2023/06/01 04:27:45;;;;;;;2.47;2.08;;;;;;;17.17;49.45;97416.63;4896140;28;20413;-76
2023/06/01 04:30:12;;;;;;;1.75;1.60;;;;;;;17.25;49.00;97421.28;4904396;28;20250;-76
2023/06/01 04:32:38;;;;;;;3.22;2.03;;;;;;;17.32;48.66;97419.09;4894092;28;20449;-77
2023/06/01 04:35:07;;;;;;;4.03;2.10;;;;;;;17.41;48.50;97412.16;4894833;28;20290;-76
2023/06/01 04:37:37;;;;;;;3.55;1.80;;;;;;;17.57;48.46;97425.13;4894207;28;20266;-76
2023/06/01 04:40:07;;;;;;;3.20;1.73;;;;;;;17.59;48.12;97422.97;4895116;28;20296;-77
2023/06/01 04:42:38;;;;;;;2.80;1.90;;;;;;;17.73;47.98;97420.44;4897251;28;20305;-76
2023/06/01 04:45:07;;;;;;;3.38;1.92;;;;;;;17.67;48.25;97419.72;4891271;28;20599;-76
2023/06/01 04:47:37;;;;;;;4.18;2.47;;;;;;;17.64;48.40;97424.78;4890318;28;20505;-76
2023/06/01 04:50:10;;;;;;;4.72;2.55;;;;;;;17.62;48.57;97417.16;4894121;28;20226;-76
2023/06/01 04:52:36;;;;;;;4.05;2.25;;;;;;;17.66;48.50;97426.03;4893010;28;20257;-76
2023/06/01 04:55:04;;;;;;;3.33;1.80;;;;;;;17.75;48.37;97421.72;4889637;28;20175;-76
2023/06/01 04:57:30;;;;;;;3.10;2.20;;;;;;;17.78;48.37;97421.13;4879164;28;20166;-76
2023/06/01 04:59:56;;;;;;;3.97;2.10;;;;;;;17.79;48.18;97425.34;4892944;28;20273;-77
2023/06/01 05:02:24;;;;;;;2.55;1.85;;;;;;;17.89;48.07;97418.38;4918363;28;20210;-76
2023/06/01 05:04:50;;;;;;;3.30;2.05;;;;;;;18.08;47.39;97429.72;4885970;28;20247;-77
2023/06/01 05:07:15;;;;;;;3.63;2.10;;;;;;;18.09;48.00;97423.34;4912042;28;20089;-76
2023/06/01 05:09:41;;;;;;;3.30;2.45;;;;;;;18.13;48.00;97416.47;4928349;28;20205;-76
2023/06/01 05:12:07;;;;;;;3.03;2.20;;;;;;;18.24;47.58;97411.03;4902448;28;20139;-76
2023/06/01 05:14:32;;;;;;;5.00;2.28;;;;;;;18.27;47.67;97415.72;4886217;28;20605;-77
2023/06/01 05:16:58;;;;;;;3.65;1.88;;;;;;;18.31;47.61;97419.34;4887405;28;20403;-76
2023/06/01 05:19:23;;;;;;;5.22;2.30;;;;;;;18.39;47.52;97413.41;4882950;28;20558;-76
2023/06/01 05:21:49;;;;;;;3.22;1.98;;;;;;;18.50;47.10;97429.84;4901532;28;20222;-76
2023/06/01 05:24:14;;;;;;;2.90;2.00;;;;;;;18.48;46.81;97422.22;4905156;28;20206;-77
2023/06/01 05:26:40;;;;;;;3.13;1.90;;;;;;;18.62;46.84;97429.38;4891492;28;20384;-76
2023/06/01 05:29:05;;;;;;;2.50;1.98;;;;;;;18.76;46.70;97426.75;4901678;28;20195;-77
2023/06/01 05:31:31;;;;;;;3.05;2.20;;;;;;;18.88;45.75;97430.53;4890107;28;20173;-76
2023/06/01 05:33:56;;;;;;;3.88;1.90;;;;;;;18.92;46.46;97430.75;4884717;28;20215;-76
2023/06/01 05:36:22;;;;;;;4.03;2.00;;;;;;;18.90;46.21;97428.38;4882908;28;20211;-76
2023/06/01 05:38:47;;;;;;;5.88;2.20;;;;;;;19.05;45.75;97423.88;4892539;28;20252;-76
2023/06/01 05:41:13;;;;;;;3.60;2.00;;;;;;;19.12;46.16;97426.13;4906052;28;20317;-76
2023/06/01 05:43:38;;;;;;;3.33;2.20;;;;;;;19.24;45.55;97427.22;4860352;28;20349;-76
2023/06/01 05:46:04;;;;;;;3.15;1.90;;;;;;;19.31;45.35;97421.53;4889154;28;20206;-77
2023/06/01 05:48:30;;;;;;;4.95;2.58;;;;;;;19.44;44.87;97433.16;4881723;28;20206;-77
2023/06/01 05:50:55;;;;;;;4.38;2.15;;;;;;;19.49;44.85;97421.72;4890792;28;20263;-77
2023/06/01 05:53:24;;;;;;;3.50;1.73;;;;;;;19.59;44.98;97416.22;4921729;28;20377;-78
2023/06/01 05:55:51;;;;;;;3.25;1.98;;;;;;;19.82;44.68;97419.72;4889893;28;20304;-77
2023/06/01 05:58:16;;;;;;;3.03;1.80;;;;;;;19.88;44.11;97413.25;4905848;28;20675;-77
2023/06/01 06:00:42;;;;;;;3.45;2.00;;;;;;;19.92;44.49;97416.84;4901080;28;20704;-76
2023/06/01 06:03:07;;;;;;;3.42;1.92;;;;;;;20.28;43.59;97417.88;4884270;28;20238;-77
2023/06/01 06:05:36;;;;;;;3.85;2.10;;;;;;;20.31;43.64;97423.34;4891232;28;20558;-76
2023/06/01 06:08:01;;;;;;;3.35;1.88;;;;;;;20.40;43.29;97428.69;4883600;28;20695;-77
2023/06/01 06:10:27;;;;;;;3.95;2.00;;;;;;;20.57;42.74;97422.72;4888651;28;20195;-77
2023/06/01 06:12:52;;;;;;;3.78;2.15;;;;;;;20.76;42.42;97425.94;4889760;28;20304;-77
2023/06/01 06:15:18;;;;;;;5.03;2.22;;;;;;;20.88;41.90;97433.31;4892752;28;20178;-77
2023/06/01 06:17:43;;;;;;;3.03;1.63;;;;;;;21.05;42.11;97415.94;4906262;28;20630;-76
2023/06/01 06:20:10;;;;;;;4.45;2.00;;;;;;;21.14;41.17;97430.00;4878582;28;20198;-78
2023/06/01 06:22:36;;;;;;;2.20;1.73;;;;;;;21.12;41.48;97427.66;4892063;28;20167;-78
2023/06/01 06:25:02;;;;;;;3.17;1.90;;;;;;;21.33;41.36;97427.88;4893024;28;20253;-76
2023/06/01 06:27:27;;;;;;;2.00;1.80;;;;;;;21.56;41.33;97427.78;4880049;28;20663;-77
2023/06/01 06:29:54;;;;;;;4.35;1.90;;;;;;;21.75;40.59;97432.03;4886094;28;20253;-77
2023/06/01 06:32:22;;;;;;;3.65;2.50;;;;;;;21.57;41.16;97431.97;4887941;28;20026;-79
2023/06/01 06:34:47;;;;;;;3.55;1.75;;;;;;;21.83;40.43;97429.38;4904558;28;20794;-79
2023/06/01 06:37:13;;;;;;;2.03;1.83;;;;;;;22.03;40.32;97422.66;4911974;28;20095;-76
2023/06/01 06:39:38;;;;;;;3.67;1.73;;;;;;;22.25;40.06;97427.00;4896133;28;20036;-76
2023/06/01 06:42:05;;;;;;;2.30;1.77;;;;;;;22.31;39.53;97429.53;4896232;28;20686;-77
2023/06/01 06:44:31;;;;;;;3.33;2.08;;;;;;;22.44;39.82;97423.25;4912908;28;20030;-77
2023/06/01 06:46:59;;;;;;;3.33;1.80;;;;;;;22.86;38.91;97428.78;4915693;28;20037;-77
2023/06/01 06:49:24;;;;;;;3.22;1.92;;;;;;;23.05;39.08;97422.25;4899894;28;20030;-78
2023/06/01 06:51:49;;;;;;;3.08;1.80;;;;;;;22.94;38.10;97417.31;4898522;28;20046;-77
2023/06/01 06:54:15;;;;;;;4.60;2.00;;;;;;;23.18;37.96;97421.31;4893620;28;20428;-78
2023/06/01 06:56:40;;;;;;;4.25;2.03;;;;;;;23.12;36.93;97414.63;4908826;28;20030;-77
2023/06/01 06:59:07;;;;;;;5.63;1.83;;;;;;;23.33;37.88;97418.09;4899310;28;20023;-77
2023/06/01 07:01:35;;;;;;;3.83;1.67;;;;;;;23.73;37.25;97408.91;4874275;28;20061;-77
2023/06/01 07:04:05;;;;;;;3.25;1.85;;;;;;;24.03;37.19;97409.66;4876922;28;20627;-77
2023/06/01 07:06:32;;;;;;;3.20;1.70;;;;;;;24.24;35.87;97417.59;4876720;28;20708;-80
2023/06/01 07:08:58;;;;;;;3.65;2.28;;;;;;;24.32;35.48;97423.94;4875674;28;20563;-78
2023/06/01 07:11:23;;;;;;;3.35;1.75;;;;;;;24.25;35.50;97418.38;4894759;28;20195;-77
2023/06/01 07:13:49;;;;;;;3.25;1.90;;;;;;;24.34;36.06;97415.63;4879454;28;20301;-81
2023/06/01 07:16:14;;;;;;;4.18;1.85;;;;;;;24.51;35.68;97417.34;4904257;28;20210;-79
2023/06/01 07:18:40;;;;;;;5.05;2.10;;;;;;;24.54;35.77;97420.16;4907950;28;20223;-77
2023/06/01 07:21:05;;;;;;;3.55;1.90;;;;;;;24.51;35.84;97420.00;4891877;28;20271;-77
2023/06/01 07:23:31;;;;;;;2.40;1.88;;;;;;;24.90;34.45;97412.53;4906992;28;20185;-78
2023/06/01 07:25:57;;;;;;;2.42;1.85;;;;;;;25.24;34.73;97408.63;4900978;28;20201;-77
2023/06/01 07:28:25;;;;;;;4.68;2.42;;;;;;;25.16;34.62;97412.97;4895169;28;20202;-78
2023/06/01 07:30:52;;;;;;;2.13;1.58;;;;;;;24.94;34.45;97421.41;4886027;28;20856;-78
2023/06/01 07:33:18;;;;;;;3.28;1.83;;;;;;;24.97;34.48;97421.53;4885260;28;20195;-78
2023/06/01 07:35:44;;;;;;;4.70;2.42;;;;;;;25.11;34.21;97431.84;4898094;28;20295;-78
2023/06/01 07:38:10;;;;;;;2.85;2.33;;;;;;;25.42;34.17;97430.53;4907106;28;20235;-78
2023/06/01 07:40:38;;;;;;;3.78;2.15;;;;;;;25.63;33.26;97432.28;4887727;28;20754;-77
2023/06/01 07:43:04;;;;;;;3.75;1.90;;;;;;;25.64;33.27;97436.50;4894472;28;20280;-78
2023/06/01 07:45:29;;;;;;;4.05;1.83;;;;;;;25.88;33.88;97433.75;4892575;28;20200;-78
2023/06/01 07:47:54;;;;;;;4.07;2.08;;;;;;;25.88;33.36;97425.75;4897144;28;20269;-79
2023/06/01 07:50:20;;;;;;;2.65;2.20;;;;;;;25.84;33.53;97438.22;4902667;28;20246;-78
2023/06/01 07:52:45;;;;;;;3.72;1.90;;;;;;;25.76;34.14;97444.47;4899647;28;20194;-78
2023/06/01 07:55:11;;;;;;;4.82;2.17;;;;;;;25.89;33.61;97423.84;4881855;28;20217;-77
2023/06/01 07:57:37;;;;;;;2.45;2.05;;;;;;;25.91;33.14;97424.28;4929967;28;20190;-77
2023/06/01 08:00:11;;;;;;;2.65;2.30;;;;;;;26.29;33.73;97429.19;4916048;28;20190;-79
2023/06/01 08:02:38;;;;;;;3.65;2.13;;;;;;;26.49;33.54;97421.28;4887404;28;20590;-77
2023/06/01 08:05:03;;;;;;;3.47;2.03;;;;;;;26.66;32.91;97420.19;4872456;28;20342;-77
2023/06/01 08:07:29;;;;;;;4.45;2.22;;;;;;;26.49;32.82;97427.41;4886208;28;20259;-78
2023/06/01 08:09:55;;;;;;;2.25;1.90;;;;;;;26.24;33.06;97417.97;4882603;28;20256;-77
2023/06/01 08:12:21;;;;;;;6.05;2.20;;;;;;;26.49;32.98;97415.94;4887767;28;20649;-79
2023/06/01 08:14:46;;;;;;;2.38;2.03;;;;;;;26.87;32.89;97410.03;4895294;28;20235;-78
2023/06/01 08:17:13;;;;;;;3.92;2.08;;;;;;;26.69;31.82;97409.59;4897557;28;20315;-77
2023/06/01 08:19:41;;;;;;;3.55;2.08;;;;;;;26.68;31.73;97413.41;4912737;28;20195;-78
2023/06/01 08:22:06;;;;;;;3.88;2.00;;;;;;;27.00;31.95;97421.41;4898251;28;20329;-79
2023/06/01 08:24:33;;;;;;;2.80;1.88;;;;;;;26.76;31.47;97410.91;4891148;28;20642;-77
2023/06/01 08:26:58;;;;;;;4.43;2.22;;;;;;;27.06;31.92;97416.59;4892591;28;20270;-78
2023/06/01 08:29:24;;;;;;;4.68;2.30;;;;;;;27.36;31.23;97408.09;4896376;28;20304;-78
2023/06/01 08:31:49;;;;;;;4.15;2.35;;;;;;;27.63;30.85;97401.03;4869659;28;20202;-78
2023/06/01 08:34:15;;;;;;;4.22;2.03;;;;;;;27.99;31.18;97409.78;4910829;28;20190;-78
2023/06/01 08:36:40;;;;;;;3.53;2.65;;;;;;;27.89;30.15;97408.41;4897509;28;20427;-79
2023/06/01 08:39:22;;;;;;;2.33;2.10;;;;;;;27.83;31.24;97402.59;4896606;28;20212;-77
2023/06/01 08:42:00;;;;;;;2.92;2.33;;;;;;;27.96;31.30;97397.88;4911224;28;20196;-77
2023/06/01 08:44:28;;;;;;;3.45;2.35;;;;;;;28.28;30.26;97397.72;4895140;28;20175;-78
2023/06/01 08:46:54;;;;;;;4.97;2.13;;;;;;;28.48;30.48;97401.13;4889361;28;20104;-78
2023/06/01 08:49:21;;;;;;;2.88;2.10;;;;;;;28.90;29.42;97399.50;4890754;28;20297;-78
2023/06/01 08:51:49;;;;;;;3.28;2.13;;;;;;;28.91;28.15;97407.19;4878459;28;20253;-78
2023/06/01 08:54:14;;;;;;;4.70;2.30;;;;;;;29.06;28.49;97402.03;4899744;28;20178;-78
2023/06/01 08:56:42;;;;;;;3.85;2.05;;;;;;;28.89;28.36;97393.38;4891238;28;20263;-78
2023/06/01 08:59:10;;;;;;;3.67;2.28;;;;;;;29.36;27.72;97396.75;4900090;28;20713;-79
2023/06/01 09:01:37;;;;;;;3.83;2.20;;;;;;;28.75;28.50;97406.53;4891449;28;20183;-80
2023/06/01 09:04:03;;;;;;;3.35;2.67;;;;;;;28.98;28.32;97400.38;4900240;28;20286;-77
2023/06/01 09:06:28;;;;;;;2.45;2.17;;;;;;;29.27;27.98;97402.38;4891586;28;20308;-78
2023/06/01 09:08:54;;;;;;;4.70;2.80;;;;;;;29.35;27.35;97392.50;4892343;28;20189;-77
2023/06/01 09:11:19;;;;;;;2.70;1.98;;;;;;;28.80;27.89;97392.84;4889983;28;20597;-78
2023/06/01 09:13:44;;;;;;;3.13;1.90;;;;;;;29.36;27.75;97402.13;4892570;28;20222;-78
2023/06/01 09:16:10;;;;;;;4.25;2.47;;;;;;;29.09;27.48;97393.28;4889125;28;20660;-78
2023/06/01 09:18:36;;;;;;;2.53;1.95;;;;;;;29.39;27.03;97393.34;4892235;28;20160;-78
2023/06/01 09:21:11;;;;;;;3.80;2.20;;;;;;;29.40;27.22;97394.13;4889088;28;20030;-80
2023/06/01 09:23:37;;;;;;;;;;;;;;;29.31;27.35;97397.06;4912256;28;20632;-79
2023/06/01 09:26:04;;;;;;;2.38;2.13;;;;;;;29.15;27.78;97389.16;4922313;28;20093;-78
2023/06/01 09:28:30;;;;;;;2.88;2.30;;;;;;;29.55;27.21;97390.47;4903956;28;20023;-78
2023/06/01 09:30:55;;;;;;;2.92;2.10;;;;;;;29.51;27.20;97381.63;4906579;28;20189;-78
2023/06/01 09:33:21;;;;;;;2.60;2.22;;;;;;;29.68;26.15;97386.44;4886477;28;20207;-77
2023/06/01 09:35:48;;;;;;;2.35;2.13;;;;;;;30.19;26.98;97382.38;4890346;28;20198;-78
2023/06/01 09:38:22;;;;;;;5.88;2.40;;;;;;;30.19;27.07;97373.56;4891794;28;20576;-78
2023/06/01 09:40:59;;;;;;;2.88;2.35;;;;;;;30.26;25.74;97384.38;4895618;28;20580;-79
2023/06/01 09:43:25;;;;;;;2.83;2.20;;;;;;;30.36;25.50;97372.97;4878011;28;20237;-79
2023/06/01 09:46:04;;;;;;;4.35;2.22;;;;;;;30.93;25.58;97370.00;4878030;28;20300;-78
2023/06/01 09:48:29;;;;;;;3.00;2.17;;;;;;;30.98;25.56;97363.50;4892269;28;20282;-78
2023/06/01 09:50:54;;;;;;;3.35;2.45;;;;;;;30.76;26.12;97368.72;4903297;28;20619;-79
2023/06/01 09:53:20;;;;;;;5.55;2.40;;;;;;;31.11;26.24;97370.09;4878567;28;20225;-80
2023/06/01 09:56:01;;;;;;;6.68;2.97;;;;;;;31.17;25.02;97370.50;4928131;28;20664;-80
2023/06/01 09:58:27;;;;;;;3.60;2.00;;;;;;;30.70;24.25;97375.56;4899040;28;20276;-79
2023/06/01 10:00:53;;;;;;;4.05;2.28;;;;;;;30.68;23.81;97377.09;4879968;28;20252;-80
2023/06/01 10:03:19;;;;;;;3.65;2.33;;;;;;;30.65;23.76;97372.47;4919572;28;20213;-79
2023/06/01 10:05:46;;;;;;;3.97;2.25;;;;;;;30.67;24.74;97367.47;4914928;28;20691;-80
2023/06/01 10:08:13;;;;;;;3.95;2.15;;;;;;;30.18;23.43;97366.66;4907476;28;20222;-79
2023/06/01 10:10:39;;;;;;;3.28;2.08;;;;;;;30.16;23.48;97368.94;4891376;28;20187;-79
2023/06/01 10:13:06;;;;;;;2.67;2.00;;;;;;;30.25;24.17;97367.50;4906729;28;20208;-79
2023/06/01 10:15:32;;;;;;;2.22;1.90;;;;;;;30.31;23.61;97361.78;4905710;28;20275;-79
2023/06/01 10:17:58;;;;;;;4.30;2.28;;;;;;;30.39;23.71;97355.38;4860633;28;20097;-79
2023/06/01 10:20:24;;;;;;;2.50;2.17;;;;;;;30.59;23.89;97358.59;4911579;28;20301;-79
2023/06/01 10:22:50;;;;;;;3.58;2.10;;;;;;;30.17;23.54;97354.38;4889859;28;20210;-78
2023/06/01 10:25:18;;;;;;;2.67;1.80;;;;;;;30.56;23.30;97353.97;4885045;28;20461;-80
2023/06/01 10:27:58;;;;;;;2.97;1.85;;;;;;;30.83;22.79;97354.56;4928074;28;20223;-79
2023/06/01 10:30:23;;;;;;;5.25;1.90;;;;;;;30.38;22.37;97359.19;4881637;28;20274;-78
2023/06/01 10:32:49;;;;;;;2.97;2.00;;;;;;;30.35;22.69;97355.34;4904947;28;20271;-78
2023/06/01 10:35:31;;;;;;;2.72;2.53;;;;;;;31.18;21.55;97356.69;4896730;28;20206;-79
2023/06/01 10:38:06;;;;;;;2.60;2.40;;;;;;;31.02;23.12;97358.91;4903260;28;20640;-79
2023/06/01 10:40:37;;;;;;;;;;;;;;;30.78;23.50;97357.59;4893794;28;20384;-76
2023/06/01 10:43:03;;;;;;;5.57;2.03;;;;;;;30.71;23.91;97350.25;4860819;28;20121;-79
2023/06/01 10:45:41;;;;;;;5.30;2.47;;;;;;;31.10;21.21;97349.75;4877384;28;20216;-78
2023/06/01 10:48:11;;;;;;;3.80;1.98;;;;;;;31.63;23.12;97329.63;4894565;28;20158;-78
2023/06/01 10:50:41;;;;;;;3.08;2.28;;;;;;;31.78;23.49;97337.75;4909813;28;20668;-79
2023/06/01 10:53:26;;;;;;;2.65;1.90;;;;;;;32.07;21.06;97328.59;4874689;28;20195;-78
2023/06/01 10:56:16;;;;;;;2.83;1.90;;;;;;;32.01;21.59;97335.50;4905747;28;20625;-78
2023/06/01 10:58:42;;;;;;;2.58;1.98;;;;;;;32.24;22.39;97335.16;4898285;28;20296;-80
2023/06/01 11:01:07;;;;;;;3.33;2.40;;;;;;;32.42;22.45;97323.59;4891835;28;20298;-77
2023/06/01 11:03:46;;;;;;;3.15;2.15;;;;;;;31.98;22.86;97330.88;4878647;28;20221;-77
2023/06/01 11:06:45;;;;;;;3.03;2.58;;;;;;;31.51;22.75;97336.13;4890939;28;20281;-78
2023/06/01 11:09:11;;;;;;;2.42;2.20;;;;;;;31.82;23.21;97323.13;4896934;28;20321;-80
2023/06/01 11:11:52;;;;;;;2.55;2.25;;;;;;;32.10;21.45;97322.44;4906887;28;20289;-78
2023/06/01 11:14:25;;;;;;;2.30;1.80;;;;;;;31.67;22.04;97327.72;4894676;28;20175;-78
2023/06/01 11:16:54;;;;;;;7.13;2.83;;;;;;;31.41;23.22;97323.38;4880652;28;20196;-78
2023/06/01 11:19:24;;;;;;;2.97;2.47;;;;;;;31.36;23.42;97321.81;4897327;28;20671;-77
2023/06/01 11:22:00;;;;;;;3.65;1.95;;;;;;;30.87;22.83;97325.75;4898616;28;20737;-78
2023/06/01 11:24:33;;;;;;;3.17;1.95;;;;;;;30.72;23.94;97330.25;4904319;28;20179;-77
2023/06/01 11:27:01;;;;;;;3.17;2.22;;;;;;;30.41;24.57;97326.97;4906166;28;20214;-77
2023/06/01 11:29:27;;;;;;;3.63;2.00;;;;;;;30.65;24.77;97319.47;4896306;28;20664;-78
2023/06/01 11:31:54;;;;;;;2.78;2.30;;;;;;;30.80;25.62;97310.34;4871942;28;20210;-77
2023/06/01 11:34:29;;;;;;;3.35;2.42;;;;;;;30.49;25.27;97310.94;4912477;28;20217;-78
2023/06/01 11:36:57;;;;;;;3.08;2.47;;;;;;;30.70;23.73;97310.28;4909714;28;20589;-79